Terminal Aerodrome Forecast
Issued by NWS Des Moines, IA

Home | Current Version | Previous Version | Text Only | Print | Product List | Glossary On
Versions: 1 2 3 4 5 6 7 8 9 10 11 12 13 14 15 16 17 18 19 20 21 22 23 24 25 26 27 28 29 30 31 32 33 34 35 36 37 38 39 40 41 42 43 44 45 46 47 48 49
000
FTUS43 KDMX 270532
TAFALO
TAF
KALO 270532Z 2706/2806 32012KT P6SM SCT013 OVC020
     FM270900 32018G25KT P6SM OVC025
     FM271200 32013G22KT P6SM SCT025 BKN070
     FM271500 32011KT P6SM SKC
     FM272300 VRB05KT P6SM BKN060
     FM280400 14007KT P6SM OVC060=

USA.gov is the U.S. government's official web portal to all federal, state and local government web resources and services.